Time;durP1;ratioP1;P1;durP2;ratioP2;P2;SDS_P1;SDS_P2;PMS_P1;PMS_P2;Temp;Humidity;BMP_temperature;BMP_pressure;BME280_temperature;BME280_humidity;BME280_pressure;Samples;Min_cycle;Max_cycle;Signal;HPM_P1;HPM_P2
2022/10/09 00:02:00;;;;;;;12.18;4.43;;;;;;;9.48;74.41;99691.69;6229140;22;20086;-68
2022/10/09 00:04:25;;;;;;;8.15;3.97;;;;;;;9.46;74.80;99695.31;6228733;22;20027;-71
2022/10/09 00:06:49;;;;;;;9.55;4.53;;;;;;;9.44;74.85;99694.56;6230203;22;20094;-73
2022/10/09 00:09:15;;;;;;;9.60;4.72;;;;;;;9.44;74.49;99696.34;6231650;22;20016;-76
2022/10/09 00:11:40;;;;;;;13.75;4.07;;;;;;;9.36;74.91;99694.22;6206387;22;20019;-78
2022/10/09 00:14:05;;;;;;;11.00;5.90;;;;;;;9.36;75.01;99690.69;6231010;22;20027;-72
2022/10/09 00:16:30;;;;;;;13.70;4.32;;;;;;;9.35;75.26;99681.00;6230043;22;20023;-75
2022/10/09 00:18:54;;;;;;;6.88;3.92;;;;;;;9.37;75.29;99685.25;6229332;22;20396;-72
2022/10/09 00:21:25;;;;;;;12.25;4.43;;;;;;;9.39;75.23;99683.34;6229002;22;20018;-75
2022/10/09 00:23:52;;;;;;;9.15;4.05;;;;;;;9.41;74.64;99669.94;6231326;22;20038;-77
2022/10/09 00:26:17;;;;;;;9.30;4.15;;;;;;;9.36;74.98;99675.59;6228332;22;20019;-73
2022/10/09 00:28:42;;;;;;;10.88;4.57;;;;;;;9.33;75.10;99672.25;6230574;22;20112;-74
2022/10/09 00:31:09;;;;;;;8.90;4.20;;;;;;;9.33;75.04;99667.81;6232095;22;20015;-78
2022/10/09 00:33:35;;;;;;;9.52;4.30;;;;;;;9.30;75.35;99670.66;6228835;22;20020;-76
2022/10/09 00:36:04;;;;;;;13.70;4.57;;;;;;;9.32;75.60;99659.91;6231388;22;20016;-74
2022/10/09 00:38:29;;;;;;;10.15;4.57;;;;;;;9.25;75.66;99664.81;6227434;22;20019;-70
2022/10/09 00:40:53;;;;;;;13.73;4.68;;;;;;;9.31;75.53;99663.53;6230349;22;20047;-71
2022/10/09 00:43:38;;;;;;;12.63;4.00;;;;;;;9.28;75.97;99658.41;6230099;22;20019;-71
2022/10/09 00:46:03;;;;;;;9.85;4.30;;;;;;;9.25;75.88;99658.63;6228850;22;20094;-72
2022/10/09 00:48:28;;;;;;;10.48;4.43;;;;;;;9.20;76.12;99648.28;6229890;22;20015;-72
2022/10/09 00:50:56;;;;;;;10.45;3.92;;;;;;;9.22;76.04;99654.34;6230272;22;20015;-70
2022/10/09 00:53:23;;;;;;;12.00;4.30;;;;;;;9.18;76.40;99646.66;6228574;22;20042;-66
2022/10/09 00:55:48;;;;;;;14.50;5.47;;;;;;;9.11;76.90;99654.19;6229583;22;20096;-67
2022/10/09 00:58:13;;;;;;;8.77;4.03;;;;;;;9.13;76.44;99649.63;6229969;22;20026;-71
2022/10/09 01:00:39;;;;;;;9.13;4.07;;;;;;;9.19;76.57;99651.03;6202324;22;20015;-69
2022/10/09 01:03:04;;;;;;;9.55;4.32;;;;;;;9.20;76.40;99648.28;6228722;22;20015;-70
2022/10/09 01:06:08;;;;;;;9.68;4.07;;;;;;;9.34;75.85;99645.56;6229698;22;20485;-69
2022/10/09 01:08:43;;;;;;;8.25;3.97;;;;;;;9.30;75.73;99646.72;6106445;23;20205;-70
2022/10/09 01:11:52;;;;;;;11.80;4.82;;;;;;;9.26;75.92;99650.50;6107958;23;20021;-70
2022/10/09 01:14:21;;;;;;;8.13;4.13;;;;;;;9.16;76.17;99649.41;6058513;23;20025;-70
2022/10/09 01:17:16;;;;;;;12.77;4.75;;;;;;;9.20;76.10;99655.41;6106961;23;20017;-69
2022/10/09 01:19:46;;;;;;;11.05;4.50;;;;;;;9.12;76.86;99645.28;6098165;23;20029;-69
2022/10/09 01:22:32;;;;;;;12.23;4.45;;;;;;;9.15;76.33;99655.69;6106899;23;20013;-69
2022/10/09 01:25:06;;;;;;;7.57;4.30;;;;;;;9.14;76.09;99639.84;6106871;23;20137;-65
2022/10/09 01:27:31;;;;;;;;;;;;;;;9.24;75.42;99646.28;6107289;23;20017;-65
2022/10/09 01:30:02;;;;;;;12.32;5.20;;;;;;;9.12;75.55;99639.94;6082084;23;19912;-67
2022/10/09 01:32:35;;;;;;;5.55;3.60;;;;;;;9.05;75.47;99641.28;6107015;23;20083;-67
2022/10/09 01:35:01;;;;;;;6.72;3.90;;;;;;;8.94;76.08;99634.00;6107022;23;20055;-68
2022/10/09 01:37:30;;;;;;;8.15;4.35;;;;;;;8.93;76.67;99636.75;6106656;23;20014;-68
2022/10/09 01:39:55;;;;;;;13.18;4.68;;;;;;;8.89;76.42;99640.59;6106390;23;20099;-70
2022/10/09 01:42:24;;;;;;;11.38;5.47;;;;;;;8.79;77.45;99632.38;6106456;23;20018;-69
2022/10/09 01:44:48;;;;;;;12.20;5.30;;;;;;;8.75;77.62;99633.50;6118615;22;20019;-71
2022/10/09 01:47:15;;;;;;;9.90;4.68;;;;;;;8.78;77.46;99627.13;6202792;22;20022;-74
2022/10/09 01:49:58;;;;;;;13.77;4.95;;;;;;;8.79;77.19;99624.38;6230266;22;20012;-67
2022/10/09 01:52:44;;;;;;;15.18;4.53;;;;;;;8.80;77.17;99626.09;6232598;22;20016;-67
2022/10/09 01:55:25;;;;;;;5.60;3.78;;;;;;;8.76;77.33;99624.56;6233970;22;20019;-66
2022/10/09 01:58:09;;;;;;;10.20;4.20;;;;;;;8.71;77.22;99627.53;6228535;22;20331;-68
2022/10/09 02:00:38;;;;;;;11.75;4.78;;;;;;;8.63;77.47;99621.00;6227437;22;20026;-68
2022/10/09 02:03:07;;;;;;;10.55;4.47;;;;;;;8.64;77.90;99628.03;6227475;22;20062;-66
2022/10/09 02:05:32;;;;;;;10.65;4.35;;;;;;;8.60;77.63;99623.84;6227940;22;20016;-69
2022/10/09 02:07:58;;;;;;;9.82;4.93;;;;;;;8.58;78.15;99623.06;6228493;22;20406;-69
2022/10/09 02:10:24;;;;;;;8.48;4.25;;;;;;;8.60;77.53;99618.53;6228139;22;20037;-68
2022/10/09 02:12:53;;;;;;;6.95;4.68;;;;;;;8.63;77.17;99613.03;6230246;22;20015;-69
2022/10/09 02:15:20;;;;;;;8.15;4.32;;;;;;;8.59;77.69;99614.16;6230455;22;20039;-69
2022/10/09 02:17:47;;;;;;;11.80;3.95;;;;;;;8.64;77.06;99614.72;6229451;22;20023;-69
2022/10/09 02:20:23;;;;;;;6.05;3.95;;;;;;;8.56;77.35;99609.06;6229442;22;20098;-68
2022/10/09 02:22:48;;;;;;;10.80;4.25;;;;;;;8.41;78.89;99623.31;6240440;22;20026;-69
2022/10/09 02:25:14;;;;;;;8.73;4.30;;;;;;;8.42;78.86;99615.25;6230307;22;20047;-68
2022/10/09 02:27:39;;;;;;;13.55;4.95;;;;;;;8.44;78.41;99609.84;6230163;22;20046;-69
2022/10/09 02:30:07;;;;;;;13.55;3.95;;;;;;;8.41;78.19;99612.69;6231754;22;20020;-69
2022/10/09 02:32:31;;;;;;;9.75;4.40;;;;;;;8.38;78.67;99601.28;6229593;22;20035;-68
2022/10/09 02:34:56;;;;;;;10.48;4.68;;;;;;;8.37;78.23;99604.03;6229821;22;20019;-69
2022/10/09 02:37:21;;;;;;;6.72;4.45;;;;;;;8.37;78.44;99596.06;6231774;22;20016;-69
2022/10/09 02:39:45;;;;;;;14.32;4.60;;;;;;;8.36;78.51;99603.19;6244790;22;20011;-68
2022/10/09 02:42:10;;;;;;;4.82;3.22;;;;;;;8.34;78.55;99606.91;6247870;22;20091;-70
2022/10/09 02:44:35;;;;;;;9.70;4.20;;;;;;;8.41;78.14;99594.09;6243178;22;20329;-68
2022/10/09 02:46:59;;;;;;;9.85;4.55;;;;;;;8.36;78.31;99592.56;6235532;22;20111;-68
2022/10/09 02:49:24;;;;;;;9.25;4.22;;;;;;;8.38;78.11;99592.47;6231207;22;20020;-68
2022/10/09 02:51:49;;;;;;;7.68;4.45;;;;;;;8.31;78.48;99589.34;6227862;22;20037;-69
2022/10/09 02:54:13;;;;;;;3.92;3.08;;;;;;;8.33;78.41;99590.13;6227298;22;20511;-69
2022/10/09 02:56:38;;;;;;;8.82;4.28;;;;;;;8.31;78.34;99575.19;6227882;22;20026;-67
2022/10/09 02:59:03;;;;;;;15.13;5.05;;;;;;;8.20;79.13;99582.97;6229064;22;20020;-67
2022/10/09 03:01:27;;;;;;;10.65;3.70;;;;;;;8.20;79.24;99578.53;6229329;22;20473;-68
2022/10/09 03:03:52;;;;;;;8.27;4.20;;;;;;;8.19;79.39;99576.81;6229604;22;20016;-68
2022/10/09 03:06:20;;;;;;;6.20;3.90;;;;;;;8.22;79.01;99576.63;6229967;22;20015;-67
2022/10/09 03:08:46;;;;;;;7.90;4.32;;;;;;;8.23;79.44;99575.69;6229745;22;20025;-67
2022/10/09 03:11:13;;;;;;;9.73;4.35;;;;;;;8.20;79.48;99580.31;6232942;22;20016;-67
2022/10/09 03:13:38;;;;;;;6.38;4.25;;;;;;;8.19;80.10;99574.16;6242161;22;20023;-67
2022/10/09 03:16:07;;;;;;;12.98;6.03;;;;;;;8.21;79.53;99566.97;6229412;22;20393;-66
2022/10/09 03:18:32;;;;;;;9.23;4.40;;;;;;;8.16;79.77;99563.72;6237049;22;20028;-69
2022/10/09 03:20:57;;;;;;;9.00;4.32;;;;;;;8.16;79.76;99565.53;6229784;22;20024;-69
2022/10/09 03:23:22;;;;;;;7.60;4.22;;;;;;;8.19;79.61;99560.88;6235250;22;20450;-69
2022/10/09 03:25:55;;;;;;;11.70;4.72;;;;;;;8.17;79.80;99553.97;6231741;22;20458;-70
2022/10/09 03:28:20;;;;;;;9.10;4.20;;;;;;;8.18;80.12;99558.31;6229574;22;20054;-68
2022/10/09 03:30:44;;;;;;;11.38;4.05;;;;;;;8.17;79.92;99557.47;6228851;22;20015;-69
2022/10/09 03:33:09;;;;;;;8.40;3.60;;;;;;;8.22;79.17;99558.03;6232132;22;20072;-69
2022/10/09 03:35:34;;;;;;;9.77;4.50;;;;;;;8.18;79.30;99551.22;6227882;22;20072;-68
2022/10/09 03:37:58;;;;;;;8.70;4.90;;;;;;;8.17;79.44;99549.50;6229203;22;20042;-74
2022/10/09 03:40:23;;;;;;;8.35;4.18;;;;;;;8.13;79.58;99550.63;6231207;22;20015;-75
2022/10/09 03:42:47;;;;;;;11.20;4.47;;;;;;;8.17;79.83;99546.84;6231632;22;20029;-74
2022/10/09 03:45:12;;;;;;;8.60;4.47;;;;;;;8.20;79.09;99548.47;6232218;22;20102;-72
2022/10/09 03:47:37;;;;;;;8.55;5.43;;;;;;;8.21;79.26;99537.75;6231782;22;20034;-74
2022/10/09 03:50:01;;;;;;;14.77;4.50;;;;;;;8.20;79.22;99538.69;6229197;22;20074;-73
2022/10/09 03:52:27;;;;;;;7.40;3.83;;;;;;;8.22;79.09;99534.13;6231722;22;20022;-75
2022/10/09 03:54:52;;;;;;;14.52;5.85;;;;;;;8.20;79.18;99533.38;6203902;22;20016;-77
2022/10/09 03:57:17;;;;;;;12.48;4.97;;;;;;;8.27;78.46;99541.78;6231268;22;20027;-74
2022/10/09 03:59:41;;;;;;;9.85;4.28;;;;;;;8.17;79.34;99533.56;6230520;22;20022;-73
2022/10/09 04:02:06;;;;;;;9.10;4.30;;;;;;;8.23;79.23;99535.00;6229045;22;20407;-69
2022/10/09 04:04:30;;;;;;;10.55;4.63;;;;;;;8.19;79.48;99544.94;6228518;22;20038;-68
2022/10/09 04:06:55;;;;;;;5.03;3.78;;;;;;;8.25;78.86;99527.75;6230068;22;20507;-74
2022/10/09 04:09:20;;;;;;;9.38;4.85;;;;;;;8.27;79.34;99521.41;6230570;22;20443;-74
2022/10/09 04:11:44;;;;;;;11.25;5.03;;;;;;;8.45;78.68;99521.22;6231463;22;20391;-73
2022/10/09 04:14:09;;;;;;;11.00;4.80;;;;;;;8.40;78.27;99515.34;6232060;22;20026;-73
2022/10/09 04:16:34;;;;;;;9.73;4.25;;;;;;;8.53;78.27;99508.28;6204737;22;20532;-73
2022/10/09 04:18:58;;;;;;;10.02;4.70;;;;;;;8.56;78.06;99506.28;6232481;22;20101;-73
2022/10/09 04:21:23;;;;;;;12.27;4.35;;;;;;;8.58;78.12;99512.31;6232474;22;20067;-74
2022/10/09 04:23:49;;;;;;;15.30;4.78;;;;;;;8.69;77.68;99515.13;6230071;22;20022;-74
2022/10/09 04:26:14;;;;;;;11.48;3.90;;;;;;;8.75;77.68;99505.91;6231198;22;20470;-74
2022/10/09 04:28:39;;;;;;;10.32;4.82;;;;;;;8.90;76.84;99514.69;6232712;22;20065;-75
2022/10/09 04:31:04;;;;;;;13.45;3.80;;;;;;;9.08;76.05;99494.84;6230420;22;20225;-72
2022/10/09 04:33:29;;;;;;;8.23;3.97;;;;;;;9.03;76.08;99499.59;6231939;22;20020;-72
2022/10/09 04:35:56;;;;;;;6.97;4.47;;;;;;;9.00;75.78;99497.16;6230912;22;20447;-73
2022/10/09 04:38:21;;;;;;;19.85;5.32;;;;;;;9.07;75.50;99509.09;6231694;22;20150;-75
2022/10/09 04:40:56;;;;;;;14.85;5.10;;;;;;;9.00;75.68;99497.16;6239119;22;20445;-75
2022/10/09 04:43:21;;;;;;;7.65;3.67;;;;;;;9.14;74.40;99497.09;6241568;22;20102;-73
2022/10/09 04:45:45;;;;;;;5.70;3.80;;;;;;;8.99;74.72;99498.97;6231851;22;20047;-73
2022/10/09 04:48:10;;;;;;;9.18;4.70;;;;;;;8.85;75.55;99493.72;6234439;22;20023;-74
2022/10/09 04:50:38;;;;;;;4.78;3.22;;;;;;;8.87;75.37;99488.31;6206186;22;20100;-76
2022/10/09 04:53:02;;;;;;;7.78;3.75;;;;;;;8.79;75.48;99487.97;6228963;22;20011;-74
2022/10/09 04:55:27;;;;;;;11.80;5.60;;;;;;;8.75;76.78;99484.66;6230911;22;20027;-73
2022/10/09 04:57:51;;;;;;;6.95;3.20;;;;;;;8.93;75.79;99486.06;6228631;22;20015;-70
2022/10/09 05:00:16;;;;;;;7.95;3.88;;;;;;;8.98;75.31;99489.28;6228281;22;20016;-69
2022/10/09 05:02:40;;;;;;;8.18;4.40;;;;;;;8.98;75.30;99478.66;6228285;22;20022;-68
2022/10/09 05:05:05;;;;;;;9.23;4.10;;;;;;;9.02;75.62;99477.50;6228355;22;20015;-68
2022/10/09 05:07:30;;;;;;;7.13;4.13;;;;;;;9.19;75.26;99483.47;6230386;22;20024;-68
2022/10/09 05:09:55;;;;;;;13.70;4.70;;;;;;;9.34;74.60;99490.41;6230639;22;20035;-68
2022/10/09 05:12:19;;;;;;;8.43;5.65;;;;;;;9.56;73.75;99479.13;6228652;22;20016;-70
2022/10/09 05:14:44;;;;;;;12.07;5.30;;;;;;;9.77;73.68;99474.94;6230675;22;20407;-67
2022/10/09 05:17:08;;;;;;;6.53;3.55;;;;;;;10.22;72.44;99476.16;6228481;22;20018;-68
2022/10/09 05:19:33;;;;;;;12.45;4.70;;;;;;;10.55;70.82;99468.34;6202678;22;20046;-68
2022/10/09 05:21:59;;;;;;;14.65;5.18;;;;;;;10.93;69.71;99467.31;6228995;22;20008;-69
2022/10/09 05:24:23;;;;;;;12.10;4.53;;;;;;;11.47;67.77;99466.69;6230538;22;20351;-68
2022/10/09 05:26:48;;;;;;;8.88;4.55;;;;;;;12.09;66.06;99461.72;6234759;22;20397;-68
2022/10/09 05:29:13;;;;;;;16.13;5.18;;;;;;;12.59;63.93;99454.94;6230155;22;20386;-68
2022/10/09 05:31:37;;;;;;;6.88;2.70;;;;;;;13.11;62.82;99463.94;6227803;22;20404;-68
2022/10/09 05:34:02;;;;;;;8.65;4.80;;;;;;;13.12;61.20;99460.28;6229330;22;20015;-69
2022/10/09 05:36:27;;;;;;;8.48;4.20;;;;;;;13.21;61.02;99461.38;6230371;22;20317;-70
2022/10/09 05:38:52;;;;;;;7.88;4.47;;;;;;;13.15;60.76;99460.06;6177034;22;20085;-68
2022/10/09 05:41:18;;;;;;;7.50;3.97;;;;;;;13.26;60.28;99462.69;6229412;22;20100;-68
2022/10/09 05:43:46;;;;;;;9.07;4.70;;;;;;;13.35;59.61;99456.53;6231241;22;20020;-67
2022/10/09 05:46:18;;;;;;;12.27;4.97;;;;;;;13.59;60.11;99458.94;6230204;22;20022;-67
2022/10/09 05:48:45;;;;;;;7.25;5.03;;;;;;;13.33;58.92;99453.13;6236916;22;20019;-75
2022/10/09 05:51:13;;;;;;;7.05;3.72;;;;;;;13.48;58.47;99455.47;6230939;22;20729;-73
2022/10/09 05:53:40;;;;;;;9.23;4.65;;;;;;;13.52;59.01;99465.81;6230082;22;20323;-74
2022/10/09 05:56:13;;;;;;;10.43;4.72;;;;;;;13.94;58.58;99471.94;6230531;22;20413;-74
2022/10/09 05:58:38;;;;;;;11.10;4.43;;;;;;;14.42;56.79;99472.09;6228186;22;20027;-74
2022/10/09 06:01:02;;;;;;;9.15;4.28;;;;;;;14.68;56.33;99469.72;6231372;22;20015;-74
2022/10/09 06:03:27;;;;;;;8.02;4.45;;;;;;;14.95;55.42;99476.25;6240354;22;20020;-76
2022/10/09 06:05:52;;;;;;;11.18;4.82;;;;;;;15.34;54.59;99472.56;6228575;22;20735;-75
2022/10/09 06:08:16;;;;;;;14.88;4.97;;;;;;;15.53;53.36;99463.59;6231121;22;20026;-75
2022/10/09 06:10:41;;;;;;;11.60;5.03;;;;;;;15.63;53.10;99471.66;6229944;22;20051;-73
2022/10/09 06:13:05;;;;;;;12.10;4.15;;;;;;;15.89;52.49;99467.34;6230221;22;20024;-73
2022/10/09 06:15:30;;;;;;;14.23;4.88;;;;;;;16.30;51.04;99474.91;6229647;22;20047;-74
2022/10/09 06:17:54;;;;;;;11.90;4.35;;;;;;;16.88;49.93;99466.50;6229224;22;20454;-72
2022/10/09 06:20:19;;;;;;;13.40;4.65;;;;;;;17.33;48.03;99465.53;6229960;22;20012;-73
2022/10/09 06:22:44;;;;;;;9.15;3.90;;;;;;;17.47;47.72;99459.56;6230367;22;20024;-73
2022/10/09 06:25:09;;;;;;;7.57;4.30;;;;;;;17.65;46.91;99470.31;6241943;22;20027;-74
2022/10/09 06:27:35;;;;;;;15.70;4.90;;;;;;;17.67;47.09;99463.78;6247203;22;20045;-72
2022/10/09 06:29:59;;;;;;;9.90;4.55;;;;;;;17.59;46.53;99461.00;6245085;22;20015;-74
2022/10/09 06:32:24;;;;;;;12.73;5.68;;;;;;;17.73;46.46;99451.47;6237926;22;20019;-74
2022/10/09 06:34:48;;;;;;;8.00;4.55;;;;;;;18.26;45.13;99453.94;6230585;22;20019;-73
2022/10/09 06:37:13;;;;;;;6.80;4.00;;;;;;;18.78;44.20;99445.66;6230140;22;20011;-74
2022/10/09 06:39:38;;;;;;;7.50;3.95;;;;;;;19.25;43.14;99453.13;6230365;22;20015;-73
2022/10/09 06:42:03;;;;;;;7.72;3.78;;;;;;;19.56;42.13;99454.13;6229665;22;20029;-74
2022/10/09 06:44:36;;;;;;;6.60;3.80;;;;;;;19.70;41.56;99452.59;6206610;22;20015;-74
2022/10/09 06:47:01;;;;;;;8.23;4.30;;;;;;;19.90;40.97;99443.91;6232623;22;20076;-73
2022/10/09 06:49:25;;;;;;;10.85;5.22;;;;;;;19.98;41.24;99453.84;6232291;22;20094;-74
2022/10/09 06:51:50;;;;;;;6.72;4.55;;;;;;;20.08;40.31;99440.16;6231218;22;20099;-74
2022/10/09 06:54:16;;;;;;;8.93;3.97;;;;;;;20.64;39.24;99441.75;6232547;22;20102;-74
2022/10/09 06:56:41;;;;;;;7.28;4.47;;;;;;;21.14;38.23;99435.78;6205615;22;20038;-74
2022/10/09 06:59:06;;;;;;;7.32;4.38;;;;;;;21.54;37.46;99436.47;6235453;22;20049;-73
2022/10/09 07:01:32;;;;;;;9.52;4.20;;;;;;;22.20;36.81;99437.47;6228483;22;20015;-73
2022/10/09 07:04:01;;;;;;;9.52;3.95;;;;;;;22.89;35.15;99443.31;6229163;22;20019;-73
2022/10/09 07:06:29;;;;;;;6.80;4.05;;;;;;;23.35;34.22;99433.72;6227742;22;20020;-75
2022/10/09 07:08:58;;;;;;;6.30;4.50;;;;;;;23.63;33.22;99438.34;6229635;22;20015;-72
2022/10/09 07:11:25;;;;;;;8.50;4.60;;;;;;;23.87;32.90;99426.97;6229829;22;20491;-74
2022/10/09 07:13:53;;;;;;;7.57;3.90;;;;;;;24.36;32.52;99426.03;6229709;22;20142;-74
2022/10/09 07:16:23;;;;;;;8.02;4.30;;;;;;;25.10;30.81;99429.59;6232919;22;20026;-74
2022/10/09 07:18:49;;;;;;;9.77;4.28;;;;;;;25.23;30.38;99420.56;6233306;22;20023;-73
2022/10/09 07:21:14;;;;;;;5.97;4.22;;;;;;;25.32;29.92;99422.03;6205932;22;20502;-72
2022/10/09 07:23:39;;;;;;;8.07;4.70;;;;;;;25.25;30.56;99415.75;6231594;22;20015;-74
2022/10/09 07:26:13;;;;;;;8.02;4.38;;;;;;;26.01;30.32;99413.38;6233105;22;20383;-75
2022/10/09 07:28:39;;;;;;;11.38;4.43;;;;;;;26.77;28.42;99413.47;6234375;22;20043;-74
2022/10/09 07:31:04;;;;;;;10.75;4.72;;;;;;;27.24;27.38;99405.81;6237294;22;20020;-72
2022/10/09 07:33:29;;;;;;;6.25;4.93;;;;;;;27.96;27.27;99402.41;6238025;22;20128;-74
2022/10/09 07:35:56;;;;;;;7.50;4.45;;;;;;;28.13;26.44;99405.38;6241212;22;20434;-74
2022/10/09 07:38:21;;;;;;;10.13;4.47;;;;;;;28.59;25.91;99393.84;6240121;22;20046;-75
2022/10/09 07:40:46;;;;;;;8.20;5.57;;;;;;;28.88;25.06;99392.19;6239835;22;20023;-73
2022/10/09 07:43:11;;;;;;;7.60;4.78;;;;;;;29.31;24.48;99393.84;6245000;22;20012;-74
2022/10/09 07:45:35;;;;;;;5.30;3.92;;;;;;;30.31;23.52;99384.34;6234942;22;20020;-74
2022/10/09 07:48:00;;;;;;;7.50;5.85;;;;;;;30.90;22.44;99395.16;6233133;22;20365;-75
2022/10/09 07:50:25;;;;;;;12.43;4.63;;;;;;;31.52;22.15;99393.19;6232902;22;20029;-75
2022/10/09 07:52:50;;;;;;;8.05;5.30;;;;;;;31.58;21.95;99397.72;6230782;22;20054;-74
2022/10/09 07:55:15;;;;;;;7.32;4.95;;;;;;;31.20;21.95;99401.22;6232677;22;20023;-75
2022/10/09 07:57:39;;;;;;;11.15;4.68;;;;;;;31.40;22.20;99398.81;6232332;22;20039;-75
2022/10/09 08:00:04;;;;;;;8.25;5.10;;;;;;;32.20;21.31;99396.72;6232158;22;20046;-75
2022/10/09 08:02:37;;;;;;;10.85;5.05;;;;;;;32.51;20.27;99392.41;6232622;22;20059;-75
2022/10/09 08:05:03;;;;;;;14.95;5.82;;;;;;;32.34;20.40;99392.47;6230707;22;20019;-70
2022/10/09 08:07:28;;;;;;;12.02;4.78;;;;;;;32.77;20.33;99392.44;6233863;22;20360;-70
2022/10/09 08:09:52;;;;;;;6.32;4.43;;;;;;;33.40;19.35;99401.91;6233826;22;20019;-70
2022/10/09 08:12:17;;;;;;;5.97;4.57;;;;;;;32.88;19.51;99385.09;6231876;22;20026;-74
2022/10/09 08:14:43;;;;;;;7.35;4.78;;;;;;;33.00;19.24;99393.22;6230649;22;20016;-74
2022/10/09 08:17:07;;;;;;;7.13;4.97;;;;;;;33.50;18.94;99396.47;6232513;22;20030;-74
2022/10/09 08:19:32;;;;;;;5.53;4.70;;;;;;;34.42;18.03;99408.94;6232905;22;20024;-74
2022/10/09 08:21:57;;;;;;;8.30;5.28;;;;;;;34.90;17.85;99396.63;6232649;22;20016;-75
2022/10/09 08:24:21;;;;;;;7.07;4.60;;;;;;;34.46;18.21;99396.22;6232178;22;20012;-74
2022/10/09 08:26:46;;;;;;;6.97;4.88;;;;;;;34.48;18.07;99401.47;6228808;22;20043;-75
2022/10/09 08:29:12;;;;;;;5.60;4.90;;;;;;;34.69;17.54;99400.44;6231076;22;20350;-74
2022/10/09 08:31:37;;;;;;;6.63;5.18;;;;;;;34.77;17.44;99411.00;6230695;22;20077;-75
2022/10/09 08:34:03;;;;;;;10.02;4.78;;;;;;;34.55;17.43;99396.50;6229308;22;20043;-76
2022/10/09 08:36:28;;;;;;;9.15;5.57;;;;;;;34.62;17.59;99396.28;6230235;22;20019;-75
2022/10/09 08:38:54;;;;;;;7.35;4.85;;;;;;;34.30;17.62;99377.06;6228992;22;20019;-75
2022/10/09 08:41:40;;;;;;;5.72;4.20;;;;;;;33.88;18.50;99397.28;6229290;22;20813;-74
2022/10/09 08:44:10;;;;;;;9.50;4.70;;;;;;;33.34;18.32;99385.53;6230498;22;20022;-74
2022/10/09 08:46:45;;;;;;;6.93;4.85;;;;;;;33.09;18.38;99392.47;6230390;22;20493;-76
2022/10/09 08:49:24;;;;;;;6.75;5.80;;;;;;;33.18;19.46;99384.56;6229025;22;20015;-75
2022/10/09 08:51:49;;;;;;;5.25;4.72;;;;;;;33.38;18.63;99384.75;6229042;22;20462;-76
2022/10/09 08:54:43;;;;;;;8.38;4.72;;;;;;;34.65;18.75;99396.56;6231200;22;20787;-77
2022/10/09 08:57:13;;;;;;;9.38;4.93;;;;;;;34.02;17.48;99390.19;6108018;23;20028;-77
2022/10/09 08:59:38;;;;;;;9.60;4.25;;;;;;;33.67;17.96;99382.47;6108292;23;20092;-76
2022/10/09 09:02:23;;;;;;;7.43;5.15;;;;;;;32.66;18.41;99385.13;6107627;23;20021;-76
2022/10/09 09:04:56;;;;;;;7.03;4.50;;;;;;;31.59;19.66;99382.03;6107878;23;20021;-76
2022/10/09 09:07:39;;;;;;;6.85;4.15;;;;;;;30.61;21.21;99366.81;6108019;23;20017;-76
2022/10/09 09:10:22;;;;;;;5.93;4.18;;;;;;;29.10;22.78;99376.03;6108496;23;20069;-76
2022/10/09 09:13:17;;;;;;;6.43;4.32;;;;;;;28.32;23.85;99376.09;6108533;23;20108;-77
2022/10/09 09:15:51;;;;;;;7.50;4.63;;;;;;;27.79;23.98;99355.59;6107966;23;20022;-75
2022/10/09 09:18:38;;;;;;;7.10;4.25;;;;;;;28.24;23.84;99358.03;6108544;23;20025;-74
2022/10/09 09:21:16;;;;;;;7.18;4.25;;;;;;;28.66;23.44;99366.34;6111815;23;20452;-75
2022/10/09 09:23:45;;;;;;;7.50;4.18;;;;;;;28.18;23.50;99354.31;6093984;23;20021;-76
2022/10/09 09:26:19;;;;;;;12.73;4.32;;;;;;;28.68;23.38;99358.69;6083206;23;20488;-75
2022/10/09 09:28:45;;;;;;;;;;;;;;;29.31;22.20;99355.38;6108694;23;20021;-77
2022/10/09 09:31:20;;;;;;;10.75;7.47;;;;;;;29.17;22.70;99360.25;6082377;23;19995;-75
2022/10/09 09:34:12;;;;;;;6.88;4.30;;;;;;;29.46;22.67;99350.31;6189582;22;20039;-73
2022/10/09 09:36:55;;;;;;;6.10;4.07;;;;;;;30.05;22.00;99345.56;6233884;22;20019;-75
2022/10/09 09:39:25;;;;;;;7.93;4.15;;;;;;;30.24;20.60;99347.09;6230252;22;20450;-74
2022/10/09 09:41:50;;;;;;;7.68;5.03;;;;;;;30.76;20.13;99352.50;6230530;22;20011;-74
2022/10/09 09:44:16;;;;;;;12.23;5.40;;;;;;;31.11;19.97;99347.66;6227888;22;20102;-74
2022/10/09 09:46:44;;;;;;;7.03;4.47;;;;;;;31.14;19.83;99330.63;6229921;22;20015;-76
2022/10/09 09:49:16;;;;;;;9.55;5.10;;;;;;;30.70;20.23;99328.72;6229163;22;20019;-75
2022/10/09 09:51:41;;;;;;;9.90;4.80;;;;;;;29.93;21.57;99329.91;6229904;22;20332;-76
2022/10/09 09:54:15;;;;;;;6.45;4.15;;;;;;;29.25;21.58;99318.72;6229817;22;20741;-75
2022/10/09 09:56:42;;;;;;;11.80;4.45;;;;;;;28.42;22.66;99338.81;6229577;22;20110;-75
2022/10/09 09:59:30;;;;;;;8.23;4.45;;;;;;;27.36;23.14;99319.16;6229281;22;20041;-76
2022/10/09 10:02:08;;;;;;;11.05;4.95;;;;;;;26.25;24.88;99324.38;6227692;22;20018;-75
2022/10/09 10:04:32;;;;;;;8.05;4.90;;;;;;;26.04;25.70;99328.25;6228533;22;20042;-76
2022/10/09 10:06:57;;;;;;;10.40;4.40;;;;;;;26.37;24.56;99328.94;6229488;22;20020;-72
2022/10/09 10:09:22;;;;;;;6.38;4.45;;;;;;;25.74;25.67;99335.28;6228386;22;20023;-72
2022/10/09 10:11:55;;;;;;;6.00;4.57;;;;;;;24.65;26.64;99332.16;6230405;22;20473;-71
2022/10/09 10:14:20;;;;;;;11.65;5.38;;;;;;;23.29;28.11;99335.72;6230908;22;20026;-72
2022/10/09 10:16:48;;;;;;;10.70;5.10;;;;;;;22.54;29.50;99323.56;6233464;22;20023;-71
2022/10/09 10:19:23;;;;;;;6.90;4.50;;;;;;;22.07;30.00;99313.22;6231104;22;20016;-72
2022/10/09 10:22:22;;;;;;;8.15;4.95;;;;;;;21.92;30.26;99329.50;6211153;22;20019;-74
2022/10/09 10:24:50;;;;;;;10.43;5.50;;;;;;;21.19;32.02;99324.13;6239316;22;20011;-74
2022/10/09 10:27:34;;;;;;;9.80;6.07;;;;;;;20.85;32.12;99330.84;6228926;22;20028;-74
2022/10/09 10:30:11;;;;;;;7.85;4.80;;;;;;;20.39;33.05;99327.31;6229012;22;20023;-75
2022/10/09 10:32:57;;;;;;;8.43;5.18;;;;;;;20.24;33.59;99320.94;6226147;22;20023;-74
2022/10/09 10:35:21;;;;;;;;;;;;;;;20.39;32.83;99321.06;6228050;22;20023;-72
2022/10/09 10:38:07;;;;;;;9.23;4.53;;;;;;;19.86;34.08;99314.59;6228509;22;19930;-70
2022/10/09 10:40:41;;;;;;;5.97;4.03;;;;;;;19.79;33.75;99314.44;6236841;22;20121;-71
2022/10/09 10:43:09;;;;;;;7.18;3.75;;;;;;;19.74;34.07;99310.59;6229618;22;20609;-70
2022/10/09 10:46:12;;;;;;;4.47;3.35;;;;;;;19.68;33.75;99306.72;6229070;22;20024;-72
2022/10/09 10:48:46;;;;;;;11.32;4.15;;;;;;;19.42;34.58;99306.94;6201233;22;20065;-70
2022/10/09 10:51:36;;;;;;;8.80;4.20;;;;;;;19.22;35.17;99295.69;6229240;22;20018;-71
2022/10/09 10:54:12;;;;;;;5.65;3.40;;;;;;;19.01;35.26;99298.09;6229472;22;20026;-75
2022/10/09 10:56:58;;;;;;;6.65;3.45;;;;;;;18.95;35.70;99297.97;6229440;22;20046;-74
2022/10/09 10:59:35;;;;;;;5.25;4.03;;;;;;;18.67;35.90;99289.38;6206303;22;20027;-71
2022/10/09 11:02:34;;;;;;;6.55;3.75;;;;;;;18.89;35.51;99277.03;6228890;22;20018;-70
2022/10/09 11:05:27;;;;;;;8.50;3.58;;;;;;;18.67;36.39;99278.56;6082233;23;20049;-71
2022/10/09 11:08:19;;;;;;;7.03;3.55;;;;;;;18.79;35.74;99282.63;6106171;23;20104;-69
2022/10/09 11:11:02;;;;;;;4.97;3.58;;;;;;;18.78;36.51;99286.31;6081456;23;20475;-71
2022/10/09 11:13:36;;;;;;;6.55;4.07;;;;;;;18.88;36.12;99289.69;6081869;23;20025;-71
2022/10/09 11:16:22;;;;;;;8.88;3.95;;;;;;;19.03;35.62;99292.53;6106085;23;20446;-69
2022/10/09 11:19:13;;;;;;;4.63;3.42;;;;;;;18.88;35.62;99294.25;6106478;23;20025;-71
2022/10/09 11:21:44;;;;;;;6.65;3.90;;;;;;;18.70;36.12;99279.09;6114180;23;20017;-71
2022/10/09 11:25:01;;;;;;;8.73;5.07;;;;;;;18.62;36.33;99268.31;6116259;23;20029;-69
2022/10/09 11:27:49;;;;;;;7.25;3.72;;;;;;;18.67;36.48;99279.41;5937545;23;20027;-68
2022/10/09 11:30:16;;;;;;;8.80;4.25;;;;;;;18.62;36.48;99286.34;5961961;23;20043;-70
2022/10/09 11:33:18;;;;;;;6.25;3.60;;;;;;;18.69;36.70;99276.56;5962360;23;20030;-72
2022/10/09 11:35:49;;;;;;;7.82;4.00;;;;;;;18.72;36.57;99287.03;5963334;23;20085;-72
2022/10/09 11:38:32;;;;;;;13.98;4.65;;;;;;;18.77;37.12;99288.19;5943238;23;20098;-71
2022/10/09 11:40:58;;;;;;;9.90;5.28;;;;;;;18.66;37.04;99288.53;5987489;23;20020;-72
2022/10/09 11:43:25;;;;;;;11.05;4.70;;;;;;;18.66;37.06;99293.09;6078549;23;20037;-72
2022/10/09 11:46:14;;;;;;;10.98;3.78;;;;;;;18.67;36.60;99283.97;6077793;23;20014;-73